Time;durP1;ratioP1;P1;durP2;ratioP2;P2;SDS_P1;SDS_P2;PMS_P1;PMS_P2;Temp;Humidity;BMP_temperature;BMP_pressure;BME280_temperature;BME280_humidity;BME280_pressure;Samples;Min_cycle;Max_cycle;Signal;HPM_P1;HPM_P2
2023/09/14 00:00:04;;;;;;;10.37;9.37;;;;;;;17.75;68.14;93054.09;5053535;28;20257;-92
2023/09/14 00:02:29;;;;;;;10.93;9.77;;;;;;;17.56;69.11;93042.00;5073106;28;20213;-91
2023/09/14 00:04:55;;;;;;;11.00;10.13;;;;;;;17.54;70.22;93046.78;5072495;28;20185;-74
2023/09/14 00:07:20;;;;;;;10.40;9.40;;;;;;;17.45;70.79;93048.66;5073713;28;20217;-89
2023/09/14 00:09:45;;;;;;;11.43;10.47;;;;;;;17.49;69.94;93046.19;5072777;28;20249;-88
2023/09/14 00:12:11;;;;;;;10.80;9.90;;;;;;;17.43;69.40;93053.44;5053873;28;20206;-91
2023/09/14 00:14:36;;;;;;;10.10;9.30;;;;;;;17.38;69.86;93052.81;5052803;28;20210;-91
2023/09/14 00:17:01;;;;;;;10.50;9.60;;;;;;;17.38;69.64;93056.25;5070292;28;20248;-90
2023/09/14 00:19:27;;;;;;;11.80;9.60;;;;;;;17.26;69.04;93047.38;5073460;28;20248;-91
2023/09/14 00:21:53;;;;;;;10.73;9.63;;;;;;;17.23;69.18;93042.72;5056170;28;20221;-91
2023/09/14 00:24:18;;;;;;;11.87;10.10;;;;;;;17.29;69.30;93046.75;5052733;28;20190;-90
2023/09/14 00:26:43;;;;;;;10.73;9.77;;;;;;;17.32;68.20;93056.69;5054056;28;20217;-85
2023/09/14 00:29:09;;;;;;;10.43;9.53;;;;;;;17.36;68.57;93047.06;5072738;28;20186;-89
2023/09/14 00:31:38;;;;;;;10.47;9.37;;;;;;;17.36;68.74;93053.13;5057380;28;20221;-88
2023/09/14 00:34:03;;;;;;;10.47;9.67;;;;;;;17.35;68.41;93045.50;5050115;28;20739;-80
2023/09/14 00:36:30;;;;;;;10.97;9.63;;;;;;;17.39;67.69;93049.88;5064899;28;20233;-81
2023/09/14 00:38:55;;;;;;;12.70;9.40;;;;;;;17.30;67.92;93030.59;5070438;28;20186;-83
2023/09/14 00:41:21;;;;;;;10.20;9.20;;;;;;;17.40;68.20;93059.31;5048196;28;20261;-82
2023/09/14 00:43:46;;;;;;;13.67;9.67;;;;;;;17.06;68.55;93011.00;5051840;28;20214;-81
2023/09/14 00:46:11;;;;;;;9.87;9.17;;;;;;;17.41;67.91;93045.06;5062273;28;20219;-83
2023/09/14 00:48:37;;;;;;;10.73;9.83;;;;;;;17.50;67.50;93047.72;5071640;28;20969;-82
2023/09/14 00:51:03;;;;;;;10.77;9.93;;;;;;;17.43;67.27;93034.94;5069276;28;20221;-82
2023/09/14 00:53:29;;;;;;;9.87;9.00;;;;;;;17.48;67.30;93040.13;5071438;28;20241;-81
2023/09/14 00:55:56;;;;;;;10.97;9.43;;;;;;;17.58;67.81;93045.09;5071138;28;20258;-81
2023/09/14 00:58:22;;;;;;;11.87;10.80;;;;;;;17.52;67.84;93043.72;5071607;28;20182;-82
2023/09/14 01:00:48;;;;;;;11.40;10.37;;;;;;;17.46;68.89;93047.56;5063723;28;20213;-79
2023/09/14 01:03:14;;;;;;;11.17;10.10;;;;;;;17.37;69.01;93033.56;5051344;28;20245;-82
2023/09/14 01:05:40;;;;;;;10.37;9.53;;;;;;;17.42;69.59;93051.09;5056699;28;20286;-82
2023/09/14 01:08:06;;;;;;;14.00;10.20;;;;;;;17.31;69.32;93037.44;5071201;28;20246;-77
2023/09/14 01:10:31;;;;;;;10.43;9.57;;;;;;;17.50;68.72;93050.38;5070806;28;20233;-81
2023/09/14 01:12:57;;;;;;;11.00;10.20;;;;;;;17.51;68.86;93044.78;5071066;28;20230;-81
2023/09/14 01:15:51;;;;;;;10.53;9.63;;;;;;;17.53;68.16;93036.53;5066782;28;20229;-82
2023/09/14 01:18:24;;;;;;;11.33;10.20;;;;;;;17.66;68.20;93040.13;5051376;28;20245;-83
2023/09/14 01:21:14;;;;;;;11.17;9.77;;;;;;;17.60;68.19;93037.63;5058250;28;20223;-82
2023/09/14 01:23:54;;;;;;;10.97;10.03;;;;;;;17.68;68.20;93032.69;5060312;28;20186;-78
2023/09/14 01:26:20;;;;;;;11.07;10.17;;;;;;;17.62;68.97;93023.34;5058647;28;20265;-82
2023/09/14 01:28:46;;;;;;;10.90;9.90;;;;;;;17.75;68.83;93038.25;5051042;28;20195;-83
2023/09/14 01:31:11;;;;;;;10.50;9.57;;;;;;;17.68;69.36;93030.03;5050392;28;20221;-79
2023/09/14 01:33:37;;;;;;;10.17;9.33;;;;;;;17.66;70.64;93034.84;5050484;28;20215;-80
2023/09/14 01:36:11;;;;;;;10.73;9.93;;;;;;;17.71;70.51;93038.13;5059786;28;20221;-81
2023/09/14 01:38:37;;;;;;;10.93;10.13;;;;;;;17.59;71.13;93046.66;5071033;28;20191;-81
2023/09/14 01:41:03;;;;;;;10.23;9.27;;;;;;;17.42;71.95;93037.91;5070297;28;20232;-87
2023/09/14 01:43:31;;;;;;;10.47;9.47;;;;;;;17.54;69.59;93048.69;5070887;28;20210;-77
2023/09/14 01:45:56;;;;;;;10.10;9.23;;;;;;;17.40;71.61;93051.41;5070067;28;20858;-77
2023/09/14 01:48:22;;;;;;;9.63;8.90;;;;;;;17.45;71.75;93056.56;5070626;28;20221;-77
2023/09/14 01:50:48;;;;;;;10.47;9.67;;;;;;;17.14;73.67;93049.81;5062617;28;20281;-76
2023/09/14 01:53:14;;;;;;;10.23;9.23;;;;;;;17.25;73.93;93045.78;5038451;28;20215;-76
2023/09/14 01:55:39;;;;;;;14.23;10.83;;;;;;;17.21;74.20;93045.63;5055063;28;20250;-77
2023/09/14 01:58:05;;;;;;;10.53;9.80;;;;;;;17.20;74.02;93043.28;5070660;28;20190;-77
2023/09/14 02:00:30;;;;;;;10.63;9.67;;;;;;;17.20;73.96;93048.56;5063381;28;20219;-77
2023/09/14 02:02:56;;;;;;;11.23;10.23;;;;;;;17.14;72.95;93050.59;5050417;28;20179;-77
2023/09/14 02:05:21;;;;;;;10.87;9.73;;;;;;;17.03;72.99;93033.50;5053512;28;20222;-77
2023/09/14 02:07:47;;;;;;;10.93;9.73;;;;;;;17.22;73.47;93041.13;5069974;28;20233;-76
2023/09/14 02:10:13;;;;;;;11.87;10.70;;;;;;;17.19;72.41;93052.31;5066593;28;20174;-77
2023/09/14 02:12:39;;;;;;;11.43;10.40;;;;;;;17.21;72.94;93043.00;5050224;28;20186;-77
2023/09/14 02:15:05;;;;;;;10.60;9.63;;;;;;;17.16;73.52;93048.44;5051013;28;20193;-77
2023/09/14 02:17:30;;;;;;;11.97;10.90;;;;;;;17.20;73.11;93048.56;5069396;28;20189;-76
2023/09/14 02:19:56;;;;;;;11.67;10.50;;;;;;;17.17;72.95;93049.97;5069766;28;20189;-75
2023/09/14 02:22:22;;;;;;;10.37;9.53;;;;;;;17.11;73.28;93048.56;5070181;28;20249;-77
2023/09/14 02:24:47;;;;;;;10.90;9.87;;;;;;;17.09;74.06;93052.63;5068675;28;20244;-75
2023/09/14 02:27:13;;;;;;;10.67;9.63;;;;;;;16.37;73.38;92951.22;5069782;28;20288;-77
2023/09/14 02:29:38;;;;;;;11.77;10.77;;;;;;;17.07;74.65;93052.91;5069736;28;20180;-77
2023/09/14 02:32:06;;;;;;;11.33;10.50;;;;;;;17.10;74.16;93059.44;5069568;28;20255;-76
2023/09/14 02:34:31;;;;;;;12.13;11.00;;;;;;;17.13;74.22;93054.31;5064675;28;20205;-76
2023/09/14 02:36:56;;;;;;;13.10;11.80;;;;;;;16.98;75.76;93056.63;5069314;28;20224;-77
2023/09/14 02:39:22;;;;;;;13.73;11.43;;;;;;;16.77;77.22;93056.38;5069948;28;20186;-77
2023/09/14 02:41:47;;;;;;;12.73;11.40;;;;;;;16.92;77.10;93049.91;5053941;28;20221;-77
2023/09/14 02:44:12;;;;;;;11.73;10.63;;;;;;;16.70;77.74;93034.94;5049752;28;20272;-77
2023/09/14 02:46:38;;;;;;;11.73;10.27;;;;;;;16.80;77.09;93044.44;5063516;28;20221;-77
2023/09/14 02:49:03;;;;;;;11.77;10.73;;;;;;;16.84;77.27;93048.03;5069827;28;20217;-77
2023/09/14 02:51:28;;;;;;;11.80;10.47;;;;;;;16.92;76.78;93037.50;5056334;28;20802;-77
2023/09/14 02:53:54;;;;;;;11.33;10.47;;;;;;;16.86;77.18;93030.81;5049500;28;20199;-74
2023/09/14 02:56:19;;;;;;;11.63;10.53;;;;;;;16.77;77.61;93016.84;5060979;28;20308;-76
2023/09/14 02:58:45;;;;;;;11.73;10.83;;;;;;;16.80;77.82;93026.78;5069231;28;20189;-77
2023/09/14 03:01:10;;;;;;;11.00;10.10;;;;;;;16.80;76.76;93026.78;5058560;28;20261;-76
2023/09/14 03:03:39;;;;;;;12.27;11.03;;;;;;;16.81;77.07;93020.41;5048386;28;20193;-77
2023/09/14 03:06:05;;;;;;;11.53;10.63;;;;;;;16.74;77.91;93035.13;5058726;28;20226;-77
2023/09/14 03:08:32;;;;;;;12.40;11.20;;;;;;;16.72;78.41;93032.78;5066836;28;20265;-77
2023/09/14 03:10:58;;;;;;;11.53;10.73;;;;;;;16.86;77.70;93036.09;5068690;28;20991;-76
2023/09/14 03:13:23;;;;;;;11.17;10.17;;;;;;;16.86;76.47;93032.66;5068749;28;20201;-77
2023/09/14 03:15:56;;;;;;;10.83;9.87;;;;;;;16.85;76.65;93039.03;5061505;28;20216;-77
2023/09/14 03:18:22;;;;;;;14.50;11.27;;;;;;;16.90;76.60;93034.38;5062643;28;20173;-77
2023/09/14 03:20:54;;;;;;;11.63;10.43;;;;;;;16.84;76.55;93027.69;5057049;28;20232;-77
2023/09/14 03:23:20;;;;;;;12.17;9.97;;;;;;;16.99;76.42;93043.13;5058279;28;20185;-77
2023/09/14 03:25:48;;;;;;;12.17;11.10;;;;;;;17.00;76.44;93044.66;5061374;28;20240;-75
2023/09/14 03:28:17;;;;;;;12.17;11.03;;;;;;;16.90;77.32;93047.56;5049031;28;20241;-79
2023/09/14 03:30:43;;;;;;;12.43;11.07;;;;;;;16.81;77.86;93035.47;5051573;28;20220;-76
2023/09/14 03:33:09;;;;;;;11.33;10.47;;;;;;;16.95;78.25;93046.69;5045472;28;20888;-77
2023/09/14 03:35:34;;;;;;;11.40;10.40;;;;;;;16.92;78.35;93048.06;5053953;28;20334;-77
2023/09/14 03:38:00;;;;;;;16.63;9.67;;;;;;;16.72;79.09;93026.72;5072099;28;20237;-77
2023/09/14 03:40:26;;;;;;;14.30;10.97;;;;;;;16.67;79.70;93040.84;5068225;28;20238;-77
2023/09/14 03:42:51;;;;;;;11.90;10.43;;;;;;;16.69;78.86;93037.88;5052769;28;20239;-77
2023/09/14 03:45:16;;;;;;;26.10;12.20;;;;;;;16.60;78.46;93029.19;5055406;28;20260;-75
2023/09/14 03:47:42;;;;;;;12.13;11.03;;;;;;;16.69;78.58;93033.41;5072539;28;20228;-75
2023/09/14 03:50:09;;;;;;;12.87;11.40;;;;;;;16.60;77.27;93021.25;5067189;28;20212;-75
2023/09/14 03:52:35;;;;;;;12.87;11.50;;;;;;;16.48;76.91;93042.94;5052637;28;20183;-75
2023/09/14 03:55:01;;;;;;;11.27;10.27;;;;;;;16.71;77.34;93051.56;5052248;28;20268;-84
2023/09/14 03:57:28;;;;;;;13.00;11.90;;;;;;;16.74;77.99;93046.44;5072545;28;20169;-88
2023/09/14 03:59:54;;;;;;;11.87;10.77;;;;;;;16.79;79.58;93040.25;5072572;28;20185;-83
2023/09/14 04:02:20;;;;;;;15.20;11.87;;;;;;;16.77;78.18;93051.13;5065887;28;20243;-84
2023/09/14 04:04:45;;;;;;;12.17;10.93;;;;;;;16.66;80.70;93043.78;5071211;28;20209;-77
2023/09/14 04:07:11;;;;;;;11.93;10.97;;;;;;;16.74;79.41;93056.22;5096254;28;20225;-87
2023/09/14 04:09:37;;;;;;;15.00;11.93;;;;;;;16.57;79.47;93041.13;5070447;28;20197;-88
2023/09/14 04:12:03;;;;;;;10.77;9.83;;;;;;;16.61;79.60;93057.09;5064223;28;20232;-85
2023/09/14 04:14:28;;;;;;;12.87;11.67;;;;;;;16.63;80.01;93060.97;5060237;28;20283;-89
2023/09/14 04:16:57;;;;;;;11.93;10.70;;;;;;;16.60;79.59;93056.31;5063639;28;20242;-83
2023/09/14 04:19:25;;;;;;;15.07;12.13;;;;;;;16.50;78.50;93035.50;5067156;28;20194;-77
2023/09/14 04:21:51;;;;;;;12.33;11.07;;;;;;;16.57;78.16;93051.66;5056988;28;20222;-81
2023/09/14 04:24:16;;;;;;;12.87;11.67;;;;;;;16.66;78.32;93051.69;5063011;28;20249;-81
2023/09/14 04:26:41;;;;;;;13.83;11.70;;;;;;;16.46;78.26;93023.22;5061160;28;20233;-79
2023/09/14 04:29:07;;;;;;;12.57;10.80;;;;;;;16.81;77.78;93064.47;5064490;28;20186;-78
2023/09/14 04:31:34;;;;;;;12.93;11.37;;;;;;;16.78;78.19;93062.44;5041731;28;20231;-88
2023/09/14 04:33:59;;;;;;;13.63;10.73;;;;;;;16.88;77.63;93055.03;5038424;28;20238;-76
2023/09/14 04:36:25;;;;;;;13.07;11.63;;;;;;;16.94;77.56;93064.34;5052024;28;20225;-75
2023/09/14 04:38:50;;;;;;;12.93;11.83;;;;;;;16.98;78.39;93067.94;5069061;28;20196;-78
2023/09/14 04:41:16;;;;;;;15.47;12.60;;;;;;;17.07;77.73;93074.03;5076082;28;20248;-76
2023/09/14 04:43:41;;;;;;;13.47;11.97;;;;;;;17.03;78.89;93070.44;5070796;28;20184;-77
2023/09/14 04:46:06;;;;;;;14.77;12.27;;;;;;;17.06;79.23;93080.38;5070546;28;20225;-77
2023/09/14 04:48:32;;;;;;;14.53;10.83;;;;;;;17.18;79.33;93071.88;5071190;28;20665;-78
2023/09/14 04:50:59;;;;;;;14.53;11.37;;;;;;;17.34;78.46;93079.03;5071250;28;20238;-77
2023/09/14 04:53:25;;;;;;;17.37;9.90;;;;;;;17.48;77.70;93071.00;5071291;28;20193;-77
2023/09/14 04:55:51;;;;;;;11.97;10.20;;;;;;;17.37;77.28;93054.66;5063175;28;20233;-78
2023/09/14 04:58:16;;;;;;;15.80;10.73;;;;;;;17.56;76.95;93078.16;5050736;28;20182;-78
2023/09/14 05:00:42;;;;;;;18.27;11.73;;;;;;;17.54;77.80;93065.28;5056292;28;20350;-77
2023/09/14 05:03:07;;;;;;;12.23;10.70;;;;;;;17.69;78.75;93065.91;5069841;28;20228;-77
2023/09/14 05:05:32;;;;;;;13.63;11.83;;;;;;;17.84;78.06;93062.81;5068490;28;20231;-78
2023/09/14 05:07:59;;;;;;;16.40;11.87;;;;;;;18.10;76.93;93077.53;5070048;28;20249;-74
2023/09/14 05:10:25;;;;;;;16.37;10.77;;;;;;;18.29;76.43;93080.63;5055032;28;20278;-76
2023/09/14 05:12:51;;;;;;;12.20;11.10;;;;;;;18.56;74.83;93090.88;5035277;28;20187;-85
2023/09/14 05:15:17;;;;;;;11.40;10.27;;;;;;;18.82;73.78;93093.44;5046284;28;20312;-78
2023/09/14 05:17:43;;;;;;;10.93;9.93;;;;;;;18.90;69.82;93082.03;5050532;28;20191;-79
2023/09/14 05:20:09;;;;;;;15.33;10.37;;;;;;;19.08;70.01;93091.47;5047215;28;20179;-79
2023/09/14 05:22:34;;;;;;;12.73;11.17;;;;;;;19.09;68.60;93083.22;5035047;28;20194;-85
2023/09/14 05:25:02;;;;;;;11.33;10.50;;;;;;;19.25;68.47;93101.19;5042115;28;20200;-82
2023/09/14 05:27:27;;;;;;;10.63;9.63;;;;;;;19.28;67.89;93090.00;5062584;28;20210;-84
2023/09/14 05:29:52;;;;;;;12.63;11.27;;;;;;;19.41;68.32;93089.00;5070196;28;20193;-85
2023/09/14 05:32:18;;;;;;;14.67;11.40;;;;;;;19.47;67.48;93090.38;5059410;28;20254;-74
2023/09/14 05:34:43;;;;;;;11.37;10.27;;;;;;;19.42;67.78;93086.03;5067773;28;20250;-74
2023/09/14 05:37:10;;;;;;;12.67;11.57;;;;;;;19.51;68.01;93089.41;5048017;28;20342;-75
2023/09/14 05:39:36;;;;;;;13.43;11.07;;;;;;;19.55;67.68;93085.00;5037315;28;20188;-82
2023/09/14 05:42:02;;;;;;;11.47;10.37;;;;;;;19.66;68.00;93091.47;5054466;28;20252;-80
2023/09/14 05:44:28;;;;;;;11.57;10.50;;;;;;;19.81;67.39;93092.78;5060795;28;20978;-81
2023/09/14 05:46:53;;;;;;;14.60;11.57;;;;;;;19.82;69.00;93092.47;5052752;28;20216;-80
2023/09/14 05:49:18;;;;;;;16.67;11.77;;;;;;;19.62;68.82;93079.97;5045034;28;20229;-82
2023/09/14 05:51:44;;;;;;;15.30;11.83;;;;;;;19.47;70.23;93091.13;5056630;28;20231;-84
2023/09/14 05:54:09;;;;;;;14.60;13.20;;;;;;;19.52;69.21;93098.88;5063721;28;20279;-89
2023/09/14 05:56:34;;;;;;;18.67;12.47;;;;;;;19.40;69.95;93096.16;5049050;28;20250;-85
2023/09/14 05:59:01;;;;;;;13.90;12.63;;;;;;;19.62;68.82;93100.38;5047552;28;20896;-88
2023/09/14 06:01:27;;;;;;;13.70;10.80;;;;;;;19.80;68.42;93113.19;5061085;28;20247;-82
2023/09/14 06:03:53;;;;;;;13.67;12.33;;;;;;;19.52;68.06;93090.19;5054699;28;20187;-84
2023/09/14 06:06:18;;;;;;;18.40;12.10;;;;;;;19.91;67.97;93085.22;5058864;28;20223;-84
2023/09/14 06:08:43;;;;;;;13.60;12.07;;;;;;;20.06;67.57;93099.75;5057099;28;20188;-84
2023/09/14 06:11:09;;;;;;;14.07;11.57;;;;;;;20.39;66.20;93098.72;5056807;28;20252;-84
2023/09/14 06:13:34;;;;;;;15.47;12.77;;;;;;;20.41;67.47;93096.50;5068813;28;20221;-84
2023/09/14 06:16:00;;;;;;;14.47;12.53;;;;;;;20.46;66.70;93088.34;5066018;28;20220;-81
2023/09/14 06:18:25;;;;;;;18.70;13.47;;;;;;;20.87;64.94;93092.00;5052831;28;20253;-79
2023/09/14 06:20:50;;;;;;;20.80;13.10;;;;;;;20.80;65.56;93089.09;5054990;28;20258;-79
2023/09/14 06:23:16;;;;;;;17.37;12.47;;;;;;;20.58;67.16;93095.56;5032452;28;20193;-93
2023/09/14 06:25:42;;;;;;;23.10;13.00;;;;;;;21.01;64.98;93092.47;5043730;28;20230;-81
2023/09/14 06:28:08;;;;;;;15.02;13.05;;;;;;;21.12;64.09;93101.56;5064257;28;20250;-80
2023/09/14 06:30:33;;;;;;;19.03;12.47;;;;;;;20.81;65.24;93093.31;5063019;28;20228;-78
2023/09/14 06:32:59;;;;;;;24.02;13.65;;;;;;;20.79;66.60;93108.78;5065229;28;20240;-79
2023/09/14 06:35:25;;;;;;;20.95;12.85;;;;;;;20.63;66.53;93108.63;5053759;28;20216;-80
2023/09/14 06:37:50;;;;;;;25.60;12.93;;;;;;;20.54;66.46;93113.25;5042124;28;20204;-80
2023/09/14 06:40:15;;;;;;;19.20;13.60;;;;;;;20.60;66.13;93117.25;5040256;28;20233;-79
2023/09/14 06:42:43;;;;;;;23.75;13.68;;;;;;;20.53;66.39;93104.50;5055761;28;20217;-78
2023/09/14 06:45:10;;;;;;;17.02;12.48;;;;;;;20.79;65.82;93125.50;5054122;28;20191;-79
2023/09/14 06:47:35;;;;;;;22.35;13.20;;;;;;;20.52;66.27;93123.41;5056944;28;20232;-77
2023/09/14 06:50:01;;;;;;;17.58;13.82;;;;;;;20.44;66.70;93127.69;5059679;28;20193;-78
2023/09/14 06:52:26;;;;;;;18.85;12.50;;;;;;;20.68;66.05;93125.09;5039123;28;20210;-79
2023/09/14 06:54:51;;;;;;;27.25;12.48;;;;;;;21.36;63.72;93136.09;5039152;28;20217;-76
2023/09/14 06:57:17;;;;;;;24.83;13.20;;;;;;;20.50;66.68;93110.47;5064781;28;20292;-78
2023/09/14 06:59:42;;;;;;;23.48;13.15;;;;;;;21.11;63.93;93132.66;5056457;28;20206;-76
2023/09/14 07:02:08;;;;;;;26.90;13.43;;;;;;;20.88;65.10;93134.13;5082129;28;20248;-82
2023/09/14 07:04:34;;;;;;;18.27;14.27;;;;;;;20.98;64.22;93140.94;5059531;28;20204;-75
2023/09/14 07:07:00;;;;;;;15.25;12.63;;;;;;;21.70;62.08;93135.63;5044013;28;20225;-76
2023/09/14 07:09:25;;;;;;;22.20;12.73;;;;;;;21.88;60.65;93135.09;5043092;28;20184;-78
2023/09/14 07:11:51;;;;;;;15.68;12.13;;;;;;;21.96;59.88;93144.09;5044297;28;20248;-80
2023/09/14 07:14:16;;;;;;;14.68;13.00;;;;;;;21.97;59.51;93132.31;5040262;28;20219;-77
2023/09/14 07:16:42;;;;;;;17.52;12.55;;;;;;;22.02;59.45;93148.06;5058159;28;20257;-77
2023/09/14 07:19:07;;;;;;;21.55;12.50;;;;;;;22.11;58.85;93144.16;5072900;28;20192;-78
2023/09/14 07:21:36;;;;;;;16.15;13.93;;;;;;;21.80;59.89;93140.56;5063458;28;20222;-78
2023/09/14 07:24:03;;;;;;;14.73;12.45;;;;;;;22.33;57.40;93148.19;5057300;28;20183;-79
2023/09/14 07:26:29;;;;;;;20.80;12.70;;;;;;;22.60;55.87;93146.69;5045501;28;20211;-78
2023/09/14 07:28:54;;;;;;;21.02;12.23;;;;;;;22.13;57.10;93127.88;5038717;28;20203;-78
2023/09/14 07:31:20;;;;;;;15.52;12.10;;;;;;;22.01;57.49;93122.56;5044034;28;20218;-79
2023/09/14 07:33:45;;;;;;;18.05;12.77;;;;;;;22.35;56.74;93143.28;5055540;28;20228;-78
2023/09/14 07:36:11;;;;;;;18.17;11.63;;;;;;;22.28;56.70;93156.41;5053992;28;20237;-78
2023/09/14 07:38:37;;;;;;;18.52;12.07;;;;;;;22.84;54.35;93154.56;5082940;28;20191;-78
2023/09/14 07:41:03;;;;;;;20.52;11.95;;;;;;;22.56;56.25;93156.44;5059190;28;20225;-78
2023/09/14 07:43:28;;;;;;;24.58;14.32;;;;;;;22.48;55.57;93149.34;5061005;28;20234;-78
2023/09/14 07:45:55;;;;;;;15.30;11.65;;;;;;;22.43;56.04;93158.34;5056135;28;20225;-77
2023/09/14 07:48:21;;;;;;;26.67;12.40;;;;;;;22.97;52.75;93156.06;5066996;28;20278;-78
2023/09/14 07:50:47;;;;;;;18.63;12.23;;;;;;;22.78;52.09;93121.31;5048550;28;20237;-78
2023/09/14 07:53:13;;;;;;;15.27;10.43;;;;;;;22.87;53.96;93153.88;5036435;28;20226;-77
2023/09/14 07:55:38;;;;;;;19.08;10.75;;;;;;;22.80;54.16;93148.38;5041650;28;20290;-78
2023/09/14 07:58:06;;;;;;;16.98;11.95;;;;;;;22.42;54.89;93151.50;5065983;28;20224;-79
2023/09/14 08:00:33;;;;;;;14.35;11.75;;;;;;;23.28;52.62;93162.25;5062108;28;20234;-80
2023/09/14 08:02:58;;;;;;;22.63;12.02;;;;;;;23.00;53.49;93161.47;5036814;28;20212;-79
2023/09/14 08:05:24;;;;;;;19.98;11.43;;;;;;;23.02;54.09;93148.56;5037415;28;20241;-79
2023/09/14 08:07:49;;;;;;;19.15;13.52;;;;;;;23.52;53.22;93151.38;5066121;28;20226;-78
2023/09/14 08:10:14;;;;;;;16.70;12.93;;;;;;;23.29;53.06;93152.34;5062412;28;20231;-82
2023/09/14 08:12:40;;;;;;;22.13;12.93;;;;;;;23.25;53.40;93151.47;5047982;28;20211;-76
2023/09/14 08:15:06;;;;;;;15.45;13.07;;;;;;;23.42;51.79;93151.94;5049317;28;20219;-75
2023/09/14 08:17:31;;;;;;;15.95;12.23;;;;;;;23.68;52.72;93143.38;5070586;28;20183;-81
2023/09/14 08:19:57;;;;;;;16.35;12.93;;;;;;;24.12;51.13;93141.34;5071049;28;20191;-78
2023/09/14 08:22:23;;;;;;;17.08;12.27;;;;;;;24.02;51.15;93137.31;5071506;28;20196;-78
2023/09/14 08:24:52;;;;;;;19.17;12.43;;;;;;;24.01;49.95;93141.13;5071701;28;20177;-79
2023/09/14 08:27:18;;;;;;;17.02;11.80;;;;;;;24.29;49.90;93140.94;5071836;28;20230;-80
2023/09/14 08:29:44;;;;;;;13.98;12.45;;;;;;;24.23;49.78;93145.00;5071220;28;20183;-79
2023/09/14 08:32:12;;;;;;;17.63;12.70;;;;;;;24.18;50.38;93123.94;5053108;28;20234;-78
2023/09/14 08:34:38;;;;;;;19.73;11.50;;;;;;;23.80;50.39;93113.19;5051798;28;20231;-79
2023/09/14 08:37:07;;;;;;;19.10;12.57;;;;;;;23.62;51.06;93145.56;5068354;28;20237;-81
2023/09/14 08:39:33;;;;;;;13.27;11.75;;;;;;;24.18;49.25;93140.72;5071992;28;20282;-76
2023/09/14 08:41:58;;;;;;;15.20;11.43;;;;;;;24.41;48.94;93141.59;5071553;28;20278;-79
2023/09/14 08:44:24;;;;;;;12.20;11.10;;;;;;;24.54;48.64;93145.69;5071892;28;20856;-79
2023/09/14 08:46:53;;;;;;;15.82;11.88;;;;;;;24.34;49.41;93151.34;5071118;28;20320;-79
2023/09/14 08:49:20;;;;;;;16.63;11.20;;;;;;;24.23;50.08;93134.34;5072227;28;20228;-79
2023/09/14 08:51:48;;;;;;;14.80;12.27;;;;;;;24.51;50.17;93142.94;5071162;28;20215;-79
2023/09/14 08:54:14;;;;;;;16.92;10.68;;;;;;;24.60;48.80;93132.81;5071569;28;20211;-85
2023/09/14 08:56:40;;;;;;;13.82;12.10;;;;;;;24.53;48.70;93135.34;5063761;28;20463;-79
2023/09/14 08:59:10;;;;;;;20.70;12.10;;;;;;;24.64;50.01;93134.41;5071650;28;20200;-81
2023/09/14 09:01:36;;;;;;;18.77;12.25;;;;;;;24.84;48.09;93129.88;5053753;28;20299;-78
2023/09/14 09:04:02;;;;;;;15.23;11.93;;;;;;;25.16;47.74;93131.22;5051416;28;20181;-85
2023/09/14 09:06:27;;;;;;;18.00;11.43;;;;;;;25.51;46.68;93115.03;5074178;28;20255;-78
2023/09/14 09:08:55;;;;;;;16.92;11.85;;;;;;;25.82;45.11;93131.53;5059928;28;21164;-76
2023/09/14 09:11:21;;;;;;;19.20;11.77;;;;;;;25.96;44.27;93117.63;5057611;28;20232;-76
2023/09/14 09:13:46;;;;;;;14.27;11.82;;;;;;;25.40;45.88;93104.16;5044211;28;20240;-76
2023/09/14 09:16:12;;;;;;;18.08;11.63;;;;;;;25.22;45.86;93113.75;5048902;28;20220;-76
2023/09/14 09:19:06;;;;;;;14.38;11.85;;;;;;;26.02;44.72;93111.63;5052193;28;20200;-77
2023/09/14 09:21:33;;;;;;;16.73;12.10;;;;;;;25.80;44.14;93112.41;5060032;28;20236;-74
2023/09/14 09:24:07;;;;;;;18.30;11.38;;;;;;;26.33;44.63;93097.09;5066145;28;20192;-76
2023/09/14 09:26:35;;;;;;;18.05;12.00;;;;;;;26.54;42.57;93092.00;5052464;28;20217;-76
2023/09/14 09:29:11;;;;;;;20.88;12.60;;;;;;;26.41;43.25;93093.38;5066024;28;20189;-76
2023/09/14 09:31:55;;;;;;;15.32;12.23;;;;;;;26.49;43.62;93082.38;5047243;28;20241;-75
2023/09/14 09:34:31;;;;;;;15.60;12.18;;;;;;;26.13;43.32;93088.44;5033810;28;20213;-78
2023/09/14 09:36:57;;;;;;;16.98;11.88;;;;;;;26.62;43.11;93083.69;5060433;28;21300;-77
2023/09/14 09:39:24;;;;;;;15.95;12.77;;;;;;;26.31;44.03;93094.78;5065607;28;20186;-77
2023/09/14 09:41:49;;;;;;;22.80;13.10;;;;;;;26.15;44.77;93091.50;5064933;28;20296;-79
2023/09/14 09:44:18;;;;;;;14.60;11.80;;;;;;;26.47;44.14;93098.06;5061799;28;20196;-78
2023/09/14 09:46:43;;;;;;;21.13;12.95;;;;;;;26.91;42.41;93097.41;5064646;28;20245;-79
2023/09/14 09:49:22;;;;;;;17.98;11.85;;;;;;;26.96;41.23;93097.09;5058431;28;20285;-81
2023/09/14 09:51:49;;;;;;;20.00;11.32;;;;;;;26.98;41.82;93092.88;5062089;28;20303;-79
2023/09/14 09:54:18;;;;;;;20.38;11.93;;;;;;;26.54;42.87;93097.34;5067961;28;20209;-79
2023/09/14 09:56:43;;;;;;;16.77;12.27;;;;;;;26.65;41.40;93091.00;5060416;28;20240;-81
2023/09/14 09:59:13;;;;;;;17.60;12.68;;;;;;;26.31;42.88;93091.34;5050433;28;20189;-79
2023/09/14 10:01:47;;;;;;;19.25;12.02;;;;;;;26.63;42.63;93090.59;5043105;28;20221;-79
2023/09/14 10:04:15;;;;;;;14.82;11.98;;;;;;;26.22;43.88;93090.84;5040233;28;20205;-78
2023/09/14 10:06:43;;;;;;;13.27;11.70;;;;;;;26.34;43.73;93086.03;5033252;28;20294;-81
2023/09/14 10:09:11;;;;;;;19.98;11.75;;;;;;;26.32;42.95;93090.22;5036322;28;20213;-77
2023/09/14 10:11:38;;;;;;;14.82;11.68;;;;;;;26.50;41.95;93075.91;5056528;28;20231;-81
2023/09/14 10:14:04;;;;;;;17.42;11.23;;;;;;;26.63;41.71;93085.25;5061210;28;20221;-81
2023/09/14 10:16:39;;;;;;;19.90;11.93;;;;;;;26.37;42.65;93087.19;5045776;28;20228;-80
2023/09/14 10:19:06;;;;;;;14.55;11.40;;;;;;;26.51;41.49;93082.78;5040568;28;20201;-87
2023/09/14 10:21:32;;;;;;;16.38;11.70;;;;;;;26.21;41.05;93073.25;5058991;28;20216;-79
2023/09/14 10:23:59;;;;;;;14.68;11.20;;;;;;;26.28;42.08;93074.09;5062377;28;20237;-81
2023/09/14 10:26:29;;;;;;;13.75;11.25;;;;;;;26.15;42.47;93075.44;5057536;28;20680;-80
2023/09/14 10:28:56;;;;;;;13.88;10.63;;;;;;;26.27;40.76;93051.13;5066721;28;20188;-78
2023/09/14 10:31:24;;;;;;;13.32;10.60;;;;;;;26.43;39.13;93058.94;5059037;28;20233;-79
2023/09/14 10:33:50;;;;;;;11.10;10.00;;;;;;;26.59;38.38;93046.13;5059211;28;20204;-79
2023/09/14 10:36:18;;;;;;;11.45;10.25;;;;;;;26.89;38.47;93065.63;5052749;28;20259;-79
2023/09/14 10:38:47;;;;;;;12.55;10.88;;;;;;;26.89;38.41;93054.13;5059017;28;20284;-79
2023/09/14 10:41:13;;;;;;;11.48;10.10;;;;;;;26.84;38.65;93057.13;5067927;28;20230;-89
2023/09/14 10:43:39;;;;;;;11.57;10.45;;;;;;;26.86;39.40;93060.22;5054017;28;20178;-84
2023/09/14 10:46:10;;;;;;;12.48;10.57;;;;;;;27.30;37.92;93053.75;5045409;28;20253;-89
2023/09/14 10:48:37;;;;;;;11.35;10.25;;;;;;;27.14;37.66;93049.75;5041237;28;20230;-89
2023/09/14 10:51:03;;;;;;;16.40;11.10;;;;;;;26.79;39.52;93050.19;5056658;28;20236;-82
2023/09/14 10:53:29;;;;;;;16.13;10.30;;;;;;;26.98;38.46;93054.59;5061818;28;20275;-82
2023/09/14 10:55:55;;;;;;;14.02;10.70;;;;;;;27.27;37.07;93056.44;5048730;28;20245;-85
2023/09/14 10:58:21;;;;;;;13.50;10.95;;;;;;;26.57;36.95;93051.84;5037340;28;20254;-79
2023/09/14 11:00:55;;;;;;;14.27;11.32;;;;;;;27.07;36.72;93030.94;5053341;28;20777;-84
2023/09/14 11:03:21;;;;;;;11.55;9.63;;;;;;;27.58;35.68;93045.16;5055330;28;20185;-84
2023/09/14 11:05:47;;;;;;;12.10;10.90;;;;;;;27.79;35.04;93031.88;5055433;28;20227;-82
2023/09/14 11:08:14;;;;;;;12.13;10.30;;;;;;;28.00;35.34;93038.16;5037540;28;20212;-81
2023/09/14 11:10:56;;;;;;;14.30;9.75;;;;;;;27.53;34.81;93034.78;5036041;28;20218;-81
2023/09/14 11:13:22;;;;;;;12.15;10.90;;;;;;;27.98;34.62;93040.47;5038090;28;20232;-80
2023/09/14 11:16:05;;;;;;;14.05;10.13;;;;;;;27.60;34.14;93002.59;5046138;28;20228;-83